Anita Eve Sharp — WDC6563 — position and weather

sailwx.info

Track history (hours):
 
Tides and Currents Weather Stations Pressure Air Temp Water Temp Dewpoint Dewpoint Depression Visibility Wind Speed Wind Dir Waves Ship Positions

Anita Eve Sharp

Owner: American Commercial Lines LLC, Jeffersonvillle, IN. More information available from US FCC via Universal Licensing System and Coast Guard Vessel Documentation Center.

Last reported at 2017-Nov-24 11:26 UTC. Time now 2017-Nov-24 16:46 UTC.
Position N 29°22' W 094°48'.

; draft 2.9 m.

Type: . MMSI: 367057930.

Date/timePositionNaut miles runAvg speedWind from/ knotsBaromVisibWave heightAir tempDewpointWater temp
2017-Nov-24 11:26N 29°22' W 094°48'7 6.8
2017-Nov-24 10:26N 29°29' W 094°51'3 6.5
2017-Nov-24 10:00N 29°31' W 094°53'3 6.4
2017-Nov-24 09:31N 29°34' W 094°55'3 6.2
2017-Nov-24 08:59N 29°36' W 094°57'3 6.3
2017-Nov-24 08:30N 29°39' W 094°58'3 6.0
2017-Nov-24 08:00N 29°42' W 094°60'3 5.4
2017-Nov-24 07:30N 29°44' W 095°02'4 5.6
2017-Nov-24 06:53N 29°46' W 095°05'1 2.4
2017-Nov-24 06:31N 29°46' W 095°06'0 0.0
2017-Nov-24 06:00N 29°46' W 095°06'0 0.0
2017-Nov-24 05:31N 29°46' W 095°06'1 1.1
2017-Nov-24 05:00N 29°46' W 095°07'1 1.2
2017-Nov-24 04:29N 29°46' W 095°06'0 0.0
2017-Nov-24 04:00N 29°46' W 095°06'0 0.0
2017-Nov-24 03:25N 29°46' W 095°06'0 0.0
2017-Nov-24 02:58N 29°46' W 095°06'0 0.0
2017-Nov-24 02:23N 29°46' W 095°06'1 1.5
2017-Nov-24 02:00N 29°46' W 095°07'0 0.0
2017-Nov-24 01:28N 29°46' W 095°07'0 0.0
2017-Nov-24 01:00N 29°46' W 095°07'0 0.0
2017-Nov-24 00:30N 29°46' W 095°07'0 0.0
2017-Nov-23 23:59N 29°46' W 095°07'0 0.0
2017-Nov-23 23:31N 29°46' W 095°07'0 0.0
2017-Nov-23 22:59N 29°46' W 095°07'0 0.0
2017-Nov-23 22:30N 29°46' W 095°07'0 0.0
2017-Nov-23 21:59N 29°46' W 095°07'0 0.0
2017-Nov-23 21:28N 29°46' W 095°07'0 0.0
2017-Nov-23 20:56N 29°46' W 095°07'0 0.0
2017-Nov-23 18:16N 29°46' W 095°07'0 0.0
2017-Nov-23 17:46N 29°46' W 095°07'0 0.0
2017-Nov-23 17:27N 29°46' W 095°07'0 0.0
2017-Nov-23 16:53N 29°46' W 095°07'0 0.0
2017-Nov-23 15:43N 29°46' W 095°07'0 0.0
2017-Nov-23 15:22N 29°46' W 095°07'0 0.0
2017-Nov-23 14:53N 29°46' W 095°07'0 0.0
2017-Nov-23 14:11N 29°46' W 095°07'0 0.1
2017-Nov-23 13:54N 29°46' W 095°07'0 1.1
2017-Nov-23 13:28N 29°46' W 095°06'1 1.3
2017-Nov-23 12:46N 29°46' W 095°05'1 3.9
2017-Nov-23 12:27N 29°45' W 095°04'2 5.0
2017-Nov-23 12:00N 29°44' W 095°02'2 4.7
2017-Nov-23 11:30N 29°42' W 095°00'3 5.8
2017-Nov-23 11:00N 29°40' W 094°58'3 6.3
2017-Nov-23 10:30N 29°37' W 094°57'3 6.3
2017-Nov-23 10:00N 29°34' W 094°55'3 6.2
2017-Nov-23 09:30N 29°31' W 094°53'  
2017-Nov-20 00:31N 29°36' W 094°57'3 6.4
2017-Nov-20 00:01N 29°33' W 094°55'  
2017-Nov-17 02:15N 29°59' W 093°52'60 3.6
2017-Nov-16 09:49N 29°29' W 094°52'2 5.8
2017-Nov-16 09:30N 29°31' W 094°53'3 5.7
2017-Nov-16 09:01N 29°33' W 094°55'3 5.7
2017-Nov-16 08:30N 29°35' W 094°56'3 5.9
2017-Nov-16 08:00N 29°38' W 094°58'3 6.1
2017-Nov-16 07:31N 29°41' W 094°59'3 5.7
2017-Nov-16 07:00N 29°43' W 095°01'4 5.3
2017-Nov-16 06:16N 29°46' W 095°04'1 4.5
2017-Nov-16 06:00N 29°45' W 095°06'1 1.1
2017-Nov-16 04:59N 29°46' W 095°07'1 0.5
2017-Nov-16 03:58N 29°46' W 095°06'0 0.2
2017-Nov-16 03:12N 29°46' W 095°06'1 0.0
2017-Nov-15 10:28N 29°46' W 095°07'1 1.8
2017-Nov-15 09:59N 29°45' W 095°06'1 1.4
2017-Nov-15 09:27N 29°46' W 095°05'2 3.4
2017-Nov-15 09:00N 29°45' W 095°04'3 5.0
2017-Nov-15 08:28N 29°43' W 095°01'2 5.0
2017-Nov-15 08:00N 29°42' W 094°60'3 5.7
2017-Nov-15 07:31N 29°39' W 094°58'3 5.9
2017-Nov-15 07:00N 29°36' W 094°57'3 5.5
2017-Nov-15 06:31N 29°34' W 094°55'3 6.1
2017-Nov-15 05:59N 29°31' W 094°53'  
Track history (hours):
 
Tides and Currents Weather Stations Pressure Air Temp Water Temp Dewpoint Dewpoint Depression Visibility Wind Speed Wind Dir Waves Ship Positions

Anita Eve Sharp

Owner: American Commercial Lines LLC, Jeffersonvillle, IN. More information available from US FCC via Universal Licensing System and Coast Guard Vessel Documentation Center.

Last reported at 2017-Nov-24 11:26 UTC. Time now 2017-Nov-24 16:46 UTC.
Position N 29°22' W 094°48'.

; draft 2.9 m.

Type: . MMSI: 367057930.

Date/timePositionNaut miles runAvg speedWind from/ knotsBaromVisibWave heightAir tempDewpointWater temp
2017-Nov-24 11:26N 29°22' W 094°48'7 6.8
2017-Nov-24 10:26N 29°29' W 094°51'3 6.5
2017-Nov-24 10:00N 29°31' W 094°53'3 6.4
2017-Nov-24 09:31N 29°34' W 094°55'3 6.2
2017-Nov-24 08:59N 29°36' W 094°57'3 6.3
2017-Nov-24 08:30N 29°39' W 094°58'3 6.0
2017-Nov-24 08:00N 29°42' W 094°60'3 5.4
2017-Nov-24 07:30N 29°44' W 095°02'4 5.6
2017-Nov-24 06:53N 29°46' W 095°05'1 2.4
2017-Nov-24 06:31N 29°46' W 095°06'0 0.0
2017-Nov-24 06:00N 29°46' W 095°06'0 0.0
2017-Nov-24 05:31N 29°46' W 095°06'1 1.1
2017-Nov-24 05:00N 29°46' W 095°07'1 1.2
2017-Nov-24 04:29N 29°46' W 095°06'0 0.0
2017-Nov-24 04:00N 29°46' W 095°06'0 0.0
2017-Nov-24 03:25N 29°46' W 095°06'0 0.0
2017-Nov-24 02:58N 29°46' W 095°06'0 0.0
2017-Nov-24 02:23N 29°46' W 095°06'1 1.5
2017-Nov-24 02:00N 29°46' W 095°07'0 0.0
2017-Nov-24 01:28N 29°46' W 095°07'0 0.0
2017-Nov-24 01:00N 29°46' W 095°07'0 0.0
2017-Nov-24 00:30N 29°46' W 095°07'0 0.0
2017-Nov-23 23:59N 29°46' W 095°07'0 0.0
2017-Nov-23 23:31N 29°46' W 095°07'0 0.0
2017-Nov-23 22:59N 29°46' W 095°07'0 0.0
2017-Nov-23 22:30N 29°46' W 095°07'0 0.0
2017-Nov-23 21:59N 29°46' W 095°07'0 0.0
2017-Nov-23 21:28N 29°46' W 095°07'0 0.0
2017-Nov-23 20:56N 29°46' W 095°07'0 0.0
2017-Nov-23 18:16N 29°46' W 095°07'0 0.0
2017-Nov-23 17:46N 29°46' W 095°07'0 0.0
2017-Nov-23 17:27N 29°46' W 095°07'0 0.0
2017-Nov-23 16:53N 29°46' W 095°07'0 0.0
2017-Nov-23 15:43N 29°46' W 095°07'0 0.0
2017-Nov-23 15:22N 29°46' W 095°07'0 0.0
2017-Nov-23 14:53N 29°46' W 095°07'0 0.0
2017-Nov-23 14:11N 29°46' W 095°07'0 0.1
2017-Nov-23 13:54N 29°46' W 095°07'0 1.1
2017-Nov-23 13:28N 29°46' W 095°06'1 1.3
2017-Nov-23 12:46N 29°46' W 095°05'1 3.9
2017-Nov-23 12:27N 29°45' W 095°04'2 5.0
2017-Nov-23 12:00N 29°44' W 095°02'2 4.7
2017-Nov-23 11:30N 29°42' W 095°00'3 5.8
2017-Nov-23 11:00N 29°40' W 094°58'3 6.3
2017-Nov-23 10:30N 29°37' W 094°57'3 6.3
2017-Nov-23 10:00N 29°34' W 094°55'3 6.2
2017-Nov-23 09:30N 29°31' W 094°53'  
2017-Nov-20 00:31N 29°36' W 094°57'3 6.4
2017-Nov-20 00:01N 29°33' W 094°55'  
2017-Nov-17 02:15N 29°59' W 093°52'60 3.6
2017-Nov-16 09:49N 29°29' W 094°52'2 5.8
2017-Nov-16 09:30N 29°31' W 094°53'3 5.7
2017-Nov-16 09:01N 29°33' W 094°55'3 5.7
2017-Nov-16 08:30N 29°35' W 094°56'3 5.9
2017-Nov-16 08:00N 29°38' W 094°58'3 6.1
2017-Nov-16 07:31N 29°41' W 094°59'3 5.7
2017-Nov-16 07:00N 29°43' W 095°01'4 5.3
2017-Nov-16 06:16N 29°46' W 095°04'1 4.5
2017-Nov-16 06:00N 29°45' W 095°06'1 1.1
2017-Nov-16 04:59N 29°46' W 095°07'1 0.5
2017-Nov-16 03:58N 29°46' W 095°06'0 0.2
2017-Nov-16 03:12N 29°46' W 095°06'1 0.0
2017-Nov-15 10:28N 29°46' W 095°07'1 1.8
2017-Nov-15 09:59N 29°45' W 095°06'1 1.4
2017-Nov-15 09:27N 29°46' W 095°05'2 3.4
2017-Nov-15 09:00N 29°45' W 095°04'3 5.0
2017-Nov-15 08:28N 29°43' W 095°01'2 5.0
2017-Nov-15 08:00N 29°42' W 094°60'3 5.7
2017-Nov-15 07:31N 29°39' W 094°58'3 5.9
2017-Nov-15 07:00N 29°36' W 094°57'3 5.5
2017-Nov-15 06:31N 29°34' W 094°55'3 6.1
2017-Nov-15 05:59N 29°31' W 094°53'  

Dump ship's entire track history